<?xml version="1.0" encoding="UTF-8" standalone="no" ?>
<gpx xmlns="http://www.topografix.com/GPX/1/1" xmlns:xsi="http://www.w3.org/2001/XMLSchema-instance" xsi:schemaLocation="http://www.topografix.com/GPX/1/1 http://www.topografix.com/GPX/1/1/gpx.xsd" version="1.1" creator="VisuGPX - https://www.visugpx.com">
  <metadata>
    <name>13519736-Grand Rocher depuis le Pleynet</name>
    <desc><![CDATA[Grand Rocher depuis le pleynet, par vallon du pra]]></desc>
  </metadata>
  <trk>
    <name><![CDATA[13519736-Grand Rocher depuis le Pleynet]]></name>
    <extensions>
      <line xmlns="http://www.topografix.com/GPX/gpx_style/0/2">
        <color>0000FF</color>
        <width>4</width>
      </line>
    </extensions>
    <trkseg>
      <trkpt lat="45.27079" lon="6.05542">
        <ele>1448</ele>
        <time>2021-08-08T13:20:52Z</time>
      </trkpt>
      <trkpt lat="45.27039" lon="6.0552">
        <ele>1445</ele>
        <time>2021-08-08T13:21:26Z</time>
      </trkpt>
      <trkpt lat="45.27039" lon="6.05465">
        <ele>1453</ele>
        <time>2021-08-08T13:21:57Z</time>
      </trkpt>
      <trkpt lat="45.27099" lon="6.05484">
        <ele>1457</ele>
        <time>2021-08-08T13:22:47Z</time>
      </trkpt>
      <trkpt lat="45.27052" lon="6.0538">
        <ele>1469</ele>
        <time>2021-08-08T13:23:56Z</time>
      </trkpt>
      <trkpt lat="45.27035" lon="6.05368">
        <ele>1470</ele>
        <time>2021-08-08T13:24:11Z</time>
      </trkpt>
      <trkpt lat="45.26941" lon="6.05265">
        <ele>1493</ele>
        <time>2021-08-08T13:25:46Z</time>
      </trkpt>
      <trkpt lat="45.2684" lon="6.0521">
        <ele>1510</ele>
        <time>2021-08-08T13:27:13Z</time>
      </trkpt>
      <trkpt lat="45.26776" lon="6.05186">
        <ele>1514</ele>
        <time>2021-08-08T13:28:06Z</time>
      </trkpt>
      <trkpt lat="45.26723" lon="6.05186">
        <ele>1512</ele>
        <time>2021-08-08T13:28:48Z</time>
      </trkpt>
      <trkpt lat="45.26699" lon="6.05144">
        <ele>1526</ele>
        <time>2021-08-08T13:29:19Z</time>
      </trkpt>
      <trkpt lat="45.26753" lon="6.05122">
        <ele>1532</ele>
        <time>2021-08-08T13:30:04Z</time>
      </trkpt>
      <trkpt lat="45.26719" lon="6.05077">
        <ele>1546</ele>
        <time>2021-08-08T13:30:41Z</time>
      </trkpt>
      <trkpt lat="45.2661" lon="6.05077">
        <ele>1549</ele>
        <time>2021-08-08T13:32:08Z</time>
      </trkpt>
      <trkpt lat="45.26563" lon="6.05019">
        <ele>1572</ele>
        <time>2021-08-08T13:32:58Z</time>
      </trkpt>
      <trkpt lat="45.2646" lon="6.05007">
        <ele>1576</ele>
        <time>2021-08-08T13:34:21Z</time>
      </trkpt>
      <trkpt lat="45.2643" lon="6.04959">
        <ele>1597</ele>
        <time>2021-08-08T13:34:57Z</time>
      </trkpt>
      <trkpt lat="45.26234" lon="6.05007">
        <ele>1602</ele>
        <time>2021-08-08T13:37:36Z</time>
      </trkpt>
      <trkpt lat="45.26168" lon="6.05004">
        <ele>1614</ele>
        <time>2021-08-08T13:38:29Z</time>
      </trkpt>
      <trkpt lat="45.26114" lon="6.04949">
        <ele>1618</ele>
        <time>2021-08-08T13:39:23Z</time>
      </trkpt>
      <trkpt lat="45.2608" lon="6.04828">
        <ele>1642</ele>
        <time>2021-08-08T13:40:36Z</time>
      </trkpt>
      <trkpt lat="45.26057" lon="6.04804">
        <ele>1647</ele>
        <time>2021-08-08T13:40:59Z</time>
      </trkpt>
      <trkpt lat="45.26022" lon="6.04816">
        <ele>1639</ele>
        <time>2021-08-08T13:41:28Z</time>
      </trkpt>
      <trkpt lat="45.26003" lon="6.04834">
        <ele>1630</ele>
        <time>2021-08-08T13:41:46Z</time>
      </trkpt>
      <trkpt lat="45.25946" lon="6.0481">
        <ele>1640</ele>
        <time>2021-08-08T13:42:33Z</time>
      </trkpt>
      <trkpt lat="45.25856" lon="6.04773">
        <ele>1657</ele>
        <time>2021-08-08T13:43:49Z</time>
      </trkpt>
      <trkpt lat="45.2583" lon="6.04746">
        <ele>1668</ele>
        <time>2021-08-08T13:44:14Z</time>
      </trkpt>
      <trkpt lat="45.25745" lon="6.04773">
        <ele>1665</ele>
        <time>2021-08-08T13:45:24Z</time>
      </trkpt>
      <trkpt lat="45.25687" lon="6.04786">
        <ele>1665</ele>
        <time>2021-08-08T13:46:11Z</time>
      </trkpt>
      <trkpt lat="45.25614" lon="6.04746">
        <ele>1673</ele>
        <time>2021-08-08T13:47:14Z</time>
      </trkpt>
      <trkpt lat="45.25544" lon="6.04641">
        <ele>1710</ele>
        <time>2021-08-08T13:48:35Z</time>
      </trkpt>
      <trkpt lat="45.25495" lon="6.04617">
        <ele>1718</ele>
        <time>2021-08-08T13:49:17Z</time>
      </trkpt>
      <trkpt lat="45.25463" lon="6.04541">
        <ele>1745</ele>
        <time>2021-08-08T13:50:07Z</time>
      </trkpt>
      <trkpt lat="45.25405" lon="6.04563">
        <ele>1740</ele>
        <time>2021-08-08T13:50:55Z</time>
      </trkpt>
      <trkpt lat="45.2539" lon="6.04523">
        <ele>1750</ele>
        <time>2021-08-08T13:51:20Z</time>
      </trkpt>
      <trkpt lat="45.25362" lon="6.0449">
        <ele>1762</ele>
        <time>2021-08-08T13:51:49Z</time>
      </trkpt>
      <trkpt lat="45.25335" lon="6.04496">
        <ele>1765</ele>
        <time>2021-08-08T13:52:11Z</time>
      </trkpt>
      <trkpt lat="45.25324" lon="6.04456">
        <ele>1776</ele>
        <time>2021-08-08T13:52:35Z</time>
      </trkpt>
      <trkpt lat="45.25191" lon="6.04417">
        <ele>1808</ele>
        <time>2021-08-08T13:54:24Z</time>
      </trkpt>
      <trkpt lat="45.25168" lon="6.04332">
        <ele>1833</ele>
        <time>2021-08-08T13:55:16Z</time>
      </trkpt>
      <trkpt lat="45.25132" lon="6.04295">
        <ele>1846</ele>
        <time>2021-08-08T13:55:51Z</time>
      </trkpt>
      <trkpt lat="45.25232" lon="6.04241">
        <ele>1855</ele>
        <time>2021-08-08T13:57:17Z</time>
      </trkpt>
      <trkpt lat="45.25149" lon="6.04123">
        <ele>1886</ele>
        <time>2021-08-08T13:58:51Z</time>
      </trkpt>
      <trkpt lat="45.25221" lon="6.04086">
        <ele>1895</ele>
        <time>2021-08-08T13:59:52Z</time>
      </trkpt>
      <trkpt lat="45.25394" lon="6.0415">
        <ele>1888</ele>
        <time>2021-08-08T14:02:15Z</time>
      </trkpt>
      <trkpt lat="45.25574" lon="6.04238">
        <ele>1869</ele>
        <time>2021-08-08T14:04:48Z</time>
      </trkpt>
      <trkpt lat="45.25655" lon="6.04271">
        <ele>1853</ele>
        <time>2021-08-08T14:05:55Z</time>
      </trkpt>
      <trkpt lat="45.25723" lon="6.04168">
        <ele>1856</ele>
        <time>2021-08-08T14:07:15Z</time>
      </trkpt>
      <trkpt lat="45.25802" lon="6.04095">
        <ele>1860</ele>
        <time>2021-08-08T14:08:30Z</time>
      </trkpt>
      <trkpt lat="45.2589" lon="6.03974">
        <ele>1873</ele>
        <time>2021-08-08T14:10:08Z</time>
      </trkpt>
      <trkpt lat="45.25935" lon="6.03925">
        <ele>1886</ele>
        <time>2021-08-08T14:10:54Z</time>
      </trkpt>
      <trkpt lat="45.2605" lon="6.04038">
        <ele>1886</ele>
        <time>2021-08-08T14:12:46Z</time>
      </trkpt>
      <trkpt lat="45.26144" lon="6.04132">
        <ele>1879</ele>
        <time>2021-08-08T14:14:18Z</time>
      </trkpt>
      <trkpt lat="45.26168" lon="6.04207">
        <ele>1860</ele>
        <time>2021-08-08T14:15:04Z</time>
      </trkpt>
      <trkpt lat="45.26268" lon="6.04259">
        <ele>1858</ele>
        <time>2021-08-08T14:16:29Z</time>
      </trkpt>
      <trkpt lat="45.26349" lon="6.04226">
        <ele>1858</ele>
        <time>2021-08-08T14:17:37Z</time>
      </trkpt>
      <trkpt lat="45.26486" lon="6.04191">
        <ele>1855</ele>
        <time>2021-08-08T14:19:28Z</time>
      </trkpt>
      <trkpt lat="45.26535" lon="6.04133">
        <ele>1860</ele>
        <time>2021-08-08T14:20:19Z</time>
      </trkpt>
      <trkpt lat="45.26591" lon="6.04006">
        <ele>1875</ele>
        <time>2021-08-08T14:21:44Z</time>
      </trkpt>
      <trkpt lat="45.2667" lon="6.03948">
        <ele>1889</ele>
        <time>2021-08-08T14:22:55Z</time>
      </trkpt>
      <trkpt lat="45.26774" lon="6.04009">
        <ele>1863</ele>
        <time>2021-08-08T14:24:25Z</time>
      </trkpt>
      <trkpt lat="45.26894" lon="6.03945">
        <ele>1871</ele>
        <time>2021-08-08T14:26:08Z</time>
      </trkpt>
      <trkpt lat="45.26979" lon="6.03839">
        <ele>1896</ele>
        <time>2021-08-08T14:27:38Z</time>
      </trkpt>
      <trkpt lat="45.27095" lon="6.03857">
        <ele>1882</ele>
        <time>2021-08-08T14:29:12Z</time>
      </trkpt>
      <trkpt lat="45.27199" lon="6.04048">
        <ele>1860</ele>
        <time>2021-08-08T14:31:28Z</time>
      </trkpt>
      <trkpt lat="45.27342" lon="6.0413">
        <ele>1869</ele>
        <time>2021-08-08T14:33:31Z</time>
      </trkpt>
      <trkpt lat="45.27498" lon="6.04079">
        <ele>1889</ele>
        <time>2021-08-08T14:35:39Z</time>
      </trkpt>
      <trkpt lat="45.27473" lon="6.03945">
        <ele>1895</ele>
        <time>2021-08-08T14:36:57Z</time>
      </trkpt>
      <trkpt lat="45.27586" lon="6.03918">
        <ele>1878</ele>
        <time>2021-08-08T14:38:29Z</time>
      </trkpt>
      <trkpt lat="45.27667" lon="6.03918">
        <ele>1863</ele>
        <time>2021-08-08T14:39:34Z</time>
      </trkpt>
      <trkpt lat="45.27729" lon="6.04018">
        <ele>1854</ele>
        <time>2021-08-08T14:40:49Z</time>
      </trkpt>
      <trkpt lat="45.27746" lon="6.03918">
        <ele>1844</ele>
        <time>2021-08-08T14:41:47Z</time>
      </trkpt>
      <trkpt lat="45.27735" lon="6.03872">
        <ele>1844</ele>
        <time>2021-08-08T14:42:14Z</time>
      </trkpt>
      <trkpt lat="45.27791" lon="6.03808">
        <ele>1831</ele>
        <time>2021-08-08T14:43:12Z</time>
      </trkpt>
      <trkpt lat="45.27981" lon="6.03981">
        <ele>1816</ele>
        <time>2021-08-08T14:46:13Z</time>
      </trkpt>
      <trkpt lat="45.2806" lon="6.03975">
        <ele>1806</ele>
        <time>2021-08-08T14:47:16Z</time>
      </trkpt>
      <trkpt lat="45.28149" lon="6.04069">
        <ele>1802</ele>
        <time>2021-08-08T14:48:45Z</time>
      </trkpt>
      <trkpt lat="45.28273" lon="6.04072">
        <ele>1797</ele>
        <time>2021-08-08T14:50:24Z</time>
      </trkpt>
      <trkpt lat="45.28352" lon="6.0406">
        <ele>1803</ele>
        <time>2021-08-08T14:51:28Z</time>
      </trkpt>
      <trkpt lat="45.28433" lon="6.03924">
        <ele>1811</ele>
        <time>2021-08-08T14:53:08Z</time>
      </trkpt>
      <trkpt lat="45.28702" lon="6.03972">
        <ele>1839</ele>
        <time>2021-08-08T14:56:45Z</time>
      </trkpt>
      <trkpt lat="45.29001" lon="6.04048">
        <ele>1843</ele>
        <time>2021-08-08T15:00:48Z</time>
      </trkpt>
      <trkpt lat="45.29082" lon="6.04063">
        <ele>1841</ele>
        <time>2021-08-08T15:01:54Z</time>
      </trkpt>
      <trkpt lat="45.29153" lon="6.04012">
        <ele>1844</ele>
        <time>2021-08-08T15:02:57Z</time>
      </trkpt>
      <trkpt lat="45.29398" lon="6.04136">
        <ele>1845</ele>
        <time>2021-08-08T15:06:26Z</time>
      </trkpt>
      <trkpt lat="45.29655" lon="6.04385">
        <ele>1866</ele>
        <time>2021-08-08T15:10:35Z</time>
      </trkpt>
      <trkpt lat="45.29928" lon="6.04531">
        <ele>1875</ele>
        <time>2021-08-08T15:14:28Z</time>
      </trkpt>
      <trkpt lat="45.30235" lon="6.04786">
        <ele>1892</ele>
        <time>2021-08-08T15:19:13Z</time>
      </trkpt>
      <trkpt lat="45.30446" lon="6.04971">
        <ele>1905</ele>
        <time>2021-08-08T15:22:31Z</time>
      </trkpt>
      <trkpt lat="45.30585" lon="6.05053">
        <ele>1890</ele>
        <time>2021-08-08T15:24:32Z</time>
      </trkpt>
      <trkpt lat="45.30905" lon="6.05092">
        <ele>1830</ele>
        <time>2021-08-08T15:28:49Z</time>
      </trkpt>
      <trkpt lat="45.30986" lon="6.05028">
        <ele>1822</ele>
        <time>2021-08-08T15:30:03Z</time>
      </trkpt>
      <trkpt lat="45.31334" lon="6.05156">
        <ele>1800</ele>
        <time>2021-08-08T15:34:51Z</time>
      </trkpt>
      <trkpt lat="45.31631" lon="6.05371">
        <ele>1766</ele>
        <time>2021-08-08T15:39:18Z</time>
      </trkpt>
      <trkpt lat="45.31799" lon="6.05538">
        <ele>1770</ele>
        <time>2021-08-08T15:42:02Z</time>
      </trkpt>
      <trkpt lat="45.32021" lon="6.05644">
        <ele>1730</ele>
        <time>2021-08-08T15:45:10Z</time>
      </trkpt>
      <trkpt lat="45.32177" lon="6.05723">
        <ele>1720</ele>
        <time>2021-08-08T15:47:22Z</time>
      </trkpt>
      <trkpt lat="45.32194" lon="6.05769">
        <ele>1718</ele>
        <time>2021-08-08T15:47:51Z</time>
      </trkpt>
      <trkpt lat="45.32243" lon="6.05714">
        <ele>1712</ele>
        <time>2021-08-08T15:48:41Z</time>
      </trkpt>
      <trkpt lat="45.32309" lon="6.05808">
        <ele>1714</ele>
        <time>2021-08-08T15:49:56Z</time>
      </trkpt>
      <trkpt lat="45.32299" lon="6.05878">
        <ele>1707</ele>
        <time>2021-08-08T15:50:36Z</time>
      </trkpt>
      <trkpt lat="45.32341" lon="6.05948">
        <ele>1697</ele>
        <time>2021-08-08T15:51:28Z</time>
      </trkpt>
      <trkpt lat="45.32331" lon="6.05981">
        <ele>1690</ele>
        <time>2021-08-08T15:51:48Z</time>
      </trkpt>
      <trkpt lat="45.32352" lon="6.06066">
        <ele>1678</ele>
        <time>2021-08-08T15:52:39Z</time>
      </trkpt>
      <trkpt lat="45.32314" lon="6.06106">
        <ele>1669</ele>
        <time>2021-08-08T15:53:17Z</time>
      </trkpt>
      <trkpt lat="45.32211" lon="6.06093">
        <ele>1658</ele>
        <time>2021-08-08T15:54:40Z</time>
      </trkpt>
      <trkpt lat="45.32083" lon="6.0596">
        <ele>1678</ele>
        <time>2021-08-08T15:56:47Z</time>
      </trkpt>
      <trkpt lat="45.31829" lon="6.06066">
        <ele>1671</ele>
        <time>2021-08-08T16:00:19Z</time>
      </trkpt>
      <trkpt lat="45.31706" lon="6.06051">
        <ele>1663</ele>
        <time>2021-08-08T16:01:58Z</time>
      </trkpt>
      <trkpt lat="45.31569" lon="6.05927">
        <ele>1664</ele>
        <time>2021-08-08T16:04:08Z</time>
      </trkpt>
      <trkpt lat="45.3139" lon="6.05666">
        <ele>1687</ele>
        <time>2021-08-08T16:07:33Z</time>
      </trkpt>
      <trkpt lat="45.31289" lon="6.05681">
        <ele>1674</ele>
        <time>2021-08-08T16:08:54Z</time>
      </trkpt>
      <trkpt lat="45.31172" lon="6.0562">
        <ele>1691</ele>
        <time>2021-08-08T16:10:34Z</time>
      </trkpt>
      <trkpt lat="45.31091" lon="6.05623">
        <ele>1685</ele>
        <time>2021-08-08T16:11:39Z</time>
      </trkpt>
      <trkpt lat="45.3105" lon="6.05663">
        <ele>1683</ele>
        <time>2021-08-08T16:12:19Z</time>
      </trkpt>
      <trkpt lat="45.30986" lon="6.05635">
        <ele>1698</ele>
        <time>2021-08-08T16:13:12Z</time>
      </trkpt>
      <trkpt lat="45.31023" lon="6.05829">
        <ele>1666</ele>
        <time>2021-08-08T16:15:05Z</time>
      </trkpt>
      <trkpt lat="45.30963" lon="6.05899">
        <ele>1660</ele>
        <time>2021-08-08T16:16:08Z</time>
      </trkpt>
      <trkpt lat="45.30895" lon="6.05902">
        <ele>1657</ele>
        <time>2021-08-08T16:17:02Z</time>
      </trkpt>
      <trkpt lat="45.30863" lon="6.05917">
        <ele>1650</ele>
        <time>2021-08-08T16:17:29Z</time>
      </trkpt>
      <trkpt lat="45.30745" lon="6.05857">
        <ele>1661</ele>
        <time>2021-08-08T16:19:09Z</time>
      </trkpt>
      <trkpt lat="45.30673" lon="6.05842">
        <ele>1662</ele>
        <time>2021-08-08T16:20:08Z</time>
      </trkpt>
      <trkpt lat="45.30592" lon="6.05754">
        <ele>1672</ele>
        <time>2021-08-08T16:21:29Z</time>
      </trkpt>
      <trkpt lat="45.30566" lon="6.05699">
        <ele>1682</ele>
        <time>2021-08-08T16:22:07Z</time>
      </trkpt>
      <trkpt lat="45.30459" lon="6.05708">
        <ele>1679</ele>
        <time>2021-08-08T16:23:32Z</time>
      </trkpt>
      <trkpt lat="45.3034" lon="6.05572">
        <ele>1699</ele>
        <time>2021-08-08T16:25:35Z</time>
      </trkpt>
      <trkpt lat="45.3019" lon="6.05575">
        <ele>1705</ele>
        <time>2021-08-08T16:27:35Z</time>
      </trkpt>
      <trkpt lat="45.30111" lon="6.05487">
        <ele>1721</ele>
        <time>2021-08-08T16:28:55Z</time>
      </trkpt>
      <trkpt lat="45.30069" lon="6.0538">
        <ele>1739</ele>
        <time>2021-08-08T16:30:04Z</time>
      </trkpt>
      <trkpt lat="45.29951" lon="6.05329">
        <ele>1739</ele>
        <time>2021-08-08T16:31:43Z</time>
      </trkpt>
      <trkpt lat="45.29849" lon="6.05131">
        <ele>1753</ele>
        <time>2021-08-08T16:34:01Z</time>
      </trkpt>
      <trkpt lat="45.29819" lon="6.05013">
        <ele>1759</ele>
        <time>2021-08-08T16:35:12Z</time>
      </trkpt>
      <trkpt lat="45.29757" lon="6.04955">
        <ele>1755</ele>
        <time>2021-08-08T16:36:11Z</time>
      </trkpt>
      <trkpt lat="45.29734" lon="6.04886">
        <ele>1762</ele>
        <time>2021-08-08T16:36:54Z</time>
      </trkpt>
      <trkpt lat="45.29695" lon="6.0484">
        <ele>1766</ele>
        <time>2021-08-08T16:37:35Z</time>
      </trkpt>
      <trkpt lat="45.29629" lon="6.04804">
        <ele>1768</ele>
        <time>2021-08-08T16:38:31Z</time>
      </trkpt>
      <trkpt lat="45.29565" lon="6.04728">
        <ele>1780</ele>
        <time>2021-08-08T16:39:38Z</time>
      </trkpt>
      <trkpt lat="45.29266" lon="6.0444">
        <ele>1782</ele>
        <time>2021-08-08T16:44:27Z</time>
      </trkpt>
      <trkpt lat="45.29117" lon="6.04403">
        <ele>1776</ele>
        <time>2021-08-08T16:46:28Z</time>
      </trkpt>
      <trkpt lat="45.29048" lon="6.04421">
        <ele>1773</ele>
        <time>2021-08-08T16:47:25Z</time>
      </trkpt>
      <trkpt lat="45.29012" lon="6.04388">
        <ele>1779</ele>
        <time>2021-08-08T16:47:59Z</time>
      </trkpt>
      <trkpt lat="45.28863" lon="6.04385">
        <ele>1774</ele>
        <time>2021-08-08T16:49:58Z</time>
      </trkpt>
      <trkpt lat="45.287" lon="6.04288">
        <ele>1784</ele>
        <time>2021-08-08T16:52:20Z</time>
      </trkpt>
      <trkpt lat="45.2866" lon="6.04282">
        <ele>1781</ele>
        <time>2021-08-08T16:52:52Z</time>
      </trkpt>
      <trkpt lat="45.28474" lon="6.04136">
        <ele>1794</ele>
        <time>2021-08-08T16:55:42Z</time>
      </trkpt>
      <trkpt lat="45.28408" lon="6.04145">
        <ele>1790</ele>
        <time>2021-08-08T16:56:35Z</time>
      </trkpt>
      <trkpt lat="45.28275" lon="6.04091">
        <ele>1796</ele>
        <time>2021-08-08T16:58:26Z</time>
      </trkpt>
      <trkpt lat="45.28169" lon="6.04069">
        <ele>1801</ele>
        <time>2021-08-08T16:59:52Z</time>
      </trkpt>
      <trkpt lat="45.28009" lon="6.03994">
        <ele>1814</ele>
        <time>2021-08-08T17:02:06Z</time>
      </trkpt>
      <trkpt lat="45.28009" lon="6.04045">
        <ele>1815</ele>
        <time>2021-08-08T17:02:35Z</time>
      </trkpt>
      <trkpt lat="45.28058" lon="6.0417">
        <ele>1808</ele>
        <time>2021-08-08T17:03:56Z</time>
      </trkpt>
      <trkpt lat="45.28" lon="6.04182">
        <ele>1821</ele>
        <time>2021-08-08T17:04:43Z</time>
      </trkpt>
      <trkpt lat="45.27977" lon="6.0444">
        <ele>1814</ele>
        <time>2021-08-08T17:07:09Z</time>
      </trkpt>
      <trkpt lat="45.27951" lon="6.04434">
        <ele>1818</ele>
        <time>2021-08-08T17:07:30Z</time>
      </trkpt>
      <trkpt lat="45.27912" lon="6.04567">
        <ele>1812</ele>
        <time>2021-08-08T17:08:52Z</time>
      </trkpt>
      <trkpt lat="45.27962" lon="6.04779">
        <ele>1795</ele>
        <time>2021-08-08T17:10:58Z</time>
      </trkpt>
      <trkpt lat="45.27979" lon="6.05004">
        <ele>1773</ele>
        <time>2021-08-08T17:13:05Z</time>
      </trkpt>
      <trkpt lat="45.27994" lon="6.05092">
        <ele>1767</ele>
        <time>2021-08-08T17:13:56Z</time>
      </trkpt>
      <trkpt lat="45.27633" lon="6.04925">
        <ele>1719</ele>
        <time>2021-08-08T17:19:00Z</time>
      </trkpt>
      <trkpt lat="45.27144" lon="6.04843">
        <ele>1637</ele>
        <time>2021-08-08T17:25:34Z</time>
      </trkpt>
      <trkpt lat="45.27073" lon="6.04779">
        <ele>1632</ele>
        <time>2021-08-08T17:26:42Z</time>
      </trkpt>
      <trkpt lat="45.27018" lon="6.04698">
        <ele>1642</ele>
        <time>2021-08-08T17:27:45Z</time>
      </trkpt>
      <trkpt lat="45.26864" lon="6.04831">
        <ele>1619</ele>
        <time>2021-08-08T17:30:09Z</time>
      </trkpt>
      <trkpt lat="45.26723" lon="6.04886">
        <ele>1613</ele>
        <time>2021-08-08T17:32:06Z</time>
      </trkpt>
      <trkpt lat="45.26868" lon="6.04943">
        <ele>1591</ele>
        <time>2021-08-08T17:34:07Z</time>
      </trkpt>
      <trkpt lat="45.26866" lon="6.04986">
        <ele>1582</ele>
        <time>2021-08-08T17:34:31Z</time>
      </trkpt>
      <trkpt lat="45.26727" lon="6.04962">
        <ele>1584</ele>
        <time>2021-08-08T17:36:23Z</time>
      </trkpt>
      <trkpt lat="45.26608" lon="6.05068">
        <ele>1552</ele>
        <time>2021-08-08T17:38:16Z</time>
      </trkpt>
      <trkpt lat="45.26719" lon="6.05068">
        <ele>1549</ele>
        <time>2021-08-08T17:39:45Z</time>
      </trkpt>
      <trkpt lat="45.26751" lon="6.05107">
        <ele>1536</ele>
        <time>2021-08-08T17:40:18Z</time>
      </trkpt>
      <trkpt lat="45.26708" lon="6.05144">
        <ele>1526</ele>
        <time>2021-08-08T17:40:59Z</time>
      </trkpt>
      <trkpt lat="45.26776" lon="6.05192">
        <ele>1512</ele>
        <time>2021-08-08T17:41:59Z</time>
      </trkpt>
      <trkpt lat="45.26913" lon="6.05262">
        <ele>1492</ele>
        <time>2021-08-08T17:43:56Z</time>
      </trkpt>
      <trkpt lat="45.27001" lon="6.05347">
        <ele>1472</ele>
        <time>2021-08-08T17:45:21Z</time>
      </trkpt>
      <trkpt lat="45.27112" lon="6.05462">
        <ele>1459</ele>
        <time>2021-08-08T17:47:11Z</time>
      </trkpt>
      <trkpt lat="45.27022" lon="6.0545">
        <ele>1452</ele>
        <time>2021-08-08T17:48:23Z</time>
      </trkpt>
      <trkpt lat="45.27031" lon="6.05511">
        <ele>1445</ele>
        <time>2021-08-08T17:48:59Z</time>
      </trkpt>
      <trkpt lat="45.27118" lon="6.05544">
        <ele>1447</ele>
        <time>2021-08-08T17:50:11Z</time>
      </trkpt>
    </trkseg>
  </trk>
</gpx>